sensor_id;sensor_type;location;lat;lon;timestamp;temperature;humidity
43151;DHT22;28755;51.478;5.702;2023-03-01T00:02:13;0.70;99.90
43151;DHT22;28755;51.478;5.702;2023-03-01T00:04:38;0.60;99.90
43151;DHT22;28755;51.478;5.702;2023-03-01T00:07:04;0.60;99.90
43151;DHT22;28755;51.478;5.702;2023-03-01T00:09:29;0.60;99.90
43151;DHT22;28755;51.478;5.702;2023-03-01T00:11:55;0.60;99.90
43151;DHT22;28755;51.478;5.702;2023-03-01T00:14:20;0.60;99.90
43151;DHT22;28755;51.478;5.702;2023-03-01T00:16:46;0.60;99.90
43151;DHT22;28755;51.478;5.702;2023-03-01T00:19:15;0.50;99.90
43151;DHT22;28755;51.478;5.702;2023-03-01T00:21:41;0.40;99.90
43151;DHT22;28755;51.478;5.702;2023-03-01T00:24:07;0.30;99.90
43151;DHT22;28755;51.478;5.702;2023-03-01T00:26:33;0.30;99.90
43151;DHT22;28755;51.478;5.702;2023-03-01T00:28:59;0.30;99.90
43151;DHT22;28755;51.478;5.702;2023-03-01T00:31:27;0.30;99.90
43151;DHT22;28755;51.478;5.702;2023-03-01T00:33:56;0.30;99.90
43151;DHT22;28755;51.478;5.702;2023-03-01T00:36:24;0.30;99.90
43151;DHT22;28755;51.478;5.702;2023-03-01T00:38:50;0.30;99.90
43151;DHT22;28755;51.478;5.702;2023-03-01T00:41:17;0.30;99.90
43151;DHT22;28755;51.478;5.702;2023-03-01T00:43:43;0.30;99.90
43151;DHT22;28755;51.478;5.702;2023-03-01T00:46:14;0.20;99.90
43151;DHT22;28755;51.478;5.702;2023-03-01T00:48:40;0.20;99.90
43151;DHT22;28755;51.478;5.702;2023-03-01T00:51:18;0.10;99.90
43151;DHT22;28755;51.478;5.702;2023-03-01T00:53:44;0.10;99.90
43151;DHT22;28755;51.478;5.702;2023-03-01T00:56:11;0.00;99.90
43151;DHT22;28755;51.478;5.702;2023-03-01T00:58:38;0.00;99.90
43151;DHT22;28755;51.478;5.702;2023-03-01T01:01:11;0.00;99.90
43151;DHT22;28755;51.478;5.702;2023-03-01T01:03:52;0.00;99.90
43151;DHT22;28755;51.478;5.702;2023-03-01T01:06:20;0.00;99.90
43151;DHT22;28755;51.478;5.702;2023-03-01T01:08:46;-0.10;99.90
43151;DHT22;28755;51.478;5.702;2023-03-01T01:11:12;-0.10;99.90
43151;DHT22;28755;51.478;5.702;2023-03-01T01:13:39;-0.10;99.90
43151;DHT22;28755;51.478;5.702;2023-03-01T01:16:05;-0.10;99.90
43151;DHT22;28755;51.478;5.702;2023-03-01T01:18:31;-0.10;99.90
43151;DHT22;28755;51.478;5.702;2023-03-01T01:20:57;-0.20;99.90
43151;DHT22;28755;51.478;5.702;2023-03-01T01:23:22;-0.20;99.90
43151;DHT22;28755;51.478;5.702;2023-03-01T01:25:48;-0.20;99.90
43151;DHT22;28755;51.478;5.702;2023-03-01T01:28:13;-0.20;99.90
43151;DHT22;28755;51.478;5.702;2023-03-01T01:30:39;-0.20;99.90
43151;DHT22;28755;51.478;5.702;2023-03-01T01:33:04;-0.30;99.90
43151;DHT22;28755;51.478;5.702;2023-03-01T01:35:30;-0.30;99.90
43151;DHT22;28755;51.478;5.702;2023-03-01T01:37:55;-0.30;99.90
43151;DHT22;28755;51.478;5.702;2023-03-01T01:40:21;-0.30;99.90
43151;DHT22;28755;51.478;5.702;2023-03-01T01:42:46;-0.30;99.90
43151;DHT22;28755;51.478;5.702;2023-03-01T01:45:29;-0.40;99.90
43151;DHT22;28755;51.478;5.702;2023-03-01T01:47:59;-0.30;99.90
43151;DHT22;28755;51.478;5.702;2023-03-01T01:50:26;-0.40;99.90
43151;DHT22;28755;51.478;5.702;2023-03-01T01:52:53;-0.50;99.90
43151;DHT22;28755;51.478;5.702;2023-03-01T01:55:23;-0.40;99.90
43151;DHT22;28755;51.478;5.702;2023-03-01T01:57:55;-0.50;99.90
43151;DHT22;28755;51.478;5.702;2023-03-01T02:00:25;-0.50;99.90
43151;DHT22;28755;51.478;5.702;2023-03-01T02:02:55;-0.60;99.90
43151;DHT22;28755;51.478;5.702;2023-03-01T02:05:38;-0.50;99.90
43151;DHT22;28755;51.478;5.702;2023-03-01T02:08:06;-0.60;99.90
43151;DHT22;28755;51.478;5.702;2023-03-01T02:10:34;-0.60;99.90
43151;DHT22;28755;51.478;5.702;2023-03-01T02:13:01;-0.50;99.90
43151;DHT22;28755;51.478;5.702;2023-03-01T02:15:32;-0.60;99.90
43151;DHT22;28755;51.478;5.702;2023-03-01T02:17:57;-0.60;99.90
43151;DHT22;28755;51.478;5.702;2023-03-01T02:20:33;-0.60;99.90
43151;DHT22;28755;51.478;5.702;2023-03-01T02:23:00;-0.60;99.90
43151;DHT22;28755;51.478;5.702;2023-03-01T02:26:33;-0.60;99.90
43151;DHT22;28755;51.478;5.702;2023-03-01T02:28:37;-0.70;99.90
43151;DHT22;28755;51.478;5.702;2023-03-01T02:31:05;-0.70;99.90
43151;DHT22;28755;51.478;5.702;2023-03-01T02:33:49;-0.80;99.90
43151;DHT22;28755;51.478;5.702;2023-03-01T02:36:20;-0.80;99.90
43151;DHT22;28755;51.478;5.702;2023-03-01T02:38:48;-0.80;99.90
43151;DHT22;28755;51.478;5.702;2023-03-01T02:41:16;-0.80;99.90
43151;DHT22;28755;51.478;5.702;2023-03-01T02:43:43;-0.80;99.90
43151;DHT22;28755;51.478;5.702;2023-03-01T02:46:16;-0.90;99.90
43151;DHT22;28755;51.478;5.702;2023-03-01T02:48:45;-0.80;99.90
43151;DHT22;28755;51.478;5.702;2023-03-01T02:51:34;-0.80;99.90
43151;DHT22;28755;51.478;5.702;2023-03-01T02:54:31;-0.80;99.90
43151;DHT22;28755;51.478;5.702;2023-03-01T02:56:59;-0.90;99.90
43151;DHT22;28755;51.478;5.702;2023-03-01T02:59:29;-1.00;99.90
43151;DHT22;28755;51.478;5.702;2023-03-01T03:01:55;-1.00;99.90
43151;DHT22;28755;51.478;5.702;2023-03-01T03:04:21;-0.90;99.90
43151;DHT22;28755;51.478;5.702;2023-03-01T03:06:49;-0.90;99.90
43151;DHT22;28755;51.478;5.702;2023-03-01T03:09:15;-0.90;99.90
43151;DHT22;28755;51.478;5.702;2023-03-01T03:11:41;-1.00;99.90
43151;DHT22;28755;51.478;5.702;2023-03-01T03:14:13;-1.00;99.90
43151;DHT22;28755;51.478;5.702;2023-03-01T03:16:46;-1.00;99.90
43151;DHT22;28755;51.478;5.702;2023-03-01T03:19:12;-1.00;99.90
43151;DHT22;28755;51.478;5.702;2023-03-01T03:21:39;-1.00;99.90
43151;DHT22;28755;51.478;5.702;2023-03-01T03:24:04;-1.10;99.90
43151;DHT22;28755;51.478;5.702;2023-03-01T03:26:30;-1.20;99.90
43151;DHT22;28755;51.478;5.702;2023-03-01T03:28:56;-1.20;99.90
43151;DHT22;28755;51.478;5.702;2023-03-01T03:31:22;-1.10;99.90
43151;DHT22;28755;51.478;5.702;2023-03-01T03:33:48;-1.10;99.90
43151;DHT22;28755;51.478;5.702;2023-03-01T03:36:22;-1.10;99.90
43151;DHT22;28755;51.478;5.702;2023-03-01T03:38:47;-1.10;99.90
43151;DHT22;28755;51.478;5.702;2023-03-01T03:41:14;-1.10;99.90
43151;DHT22;28755;51.478;5.702;2023-03-01T03:43:40;-1.20;99.90
43151;DHT22;28755;51.478;5.702;2023-03-01T03:46:08;-1.20;99.90
43151;DHT22;28755;51.478;5.702;2023-03-01T03:48:45;-1.20;99.90
43151;DHT22;28755;51.478;5.702;2023-03-01T03:51:15;-1.20;99.90
43151;DHT22;28755;51.478;5.702;2023-03-01T03:53:41;-1.20;99.90
43151;DHT22;28755;51.478;5.702;2023-03-01T03:56:07;-1.30;99.90
43151;DHT22;28755;51.478;5.702;2023-03-01T03:58:33;-1.20;99.90
43151;DHT22;28755;51.478;5.702;2023-03-01T04:00:59;-1.30;99.90
43151;DHT22;28755;51.478;5.702;2023-03-01T04:03:28;-1.30;99.90
43151;DHT22;28755;51.478;5.702;2023-03-01T04:05:54;-1.30;99.90
43151;DHT22;28755;51.478;5.702;2023-03-01T04:08:23;-1.30;99.90
43151;DHT22;28755;51.478;5.702;2023-03-01T04:10:55;-1.40;99.90
43151;DHT22;28755;51.478;5.702;2023-03-01T04:13:22;-1.40;99.90
43151;DHT22;28755;51.478;5.702;2023-03-01T04:15:51;-1.40;99.90
43151;DHT22;28755;51.478;5.702;2023-03-01T04:18:18;-1.40;99.90
43151;DHT22;28755;51.478;5.702;2023-03-01T04:20:45;-1.40;99.90
43151;DHT22;28755;51.478;5.702;2023-03-01T04:23:16;-1.40;99.90
43151;DHT22;28755;51.478;5.702;2023-03-01T04:28:36;-1.50;99.90
43151;DHT22;28755;51.478;5.702;2023-03-01T04:31:11;-1.50;99.90
43151;DHT22;28755;51.478;5.702;2023-03-01T04:33:52;-1.60;99.90
43151;DHT22;28755;51.478;5.702;2023-03-01T04:36:20;-1.60;99.90
43151;DHT22;28755;51.478;5.702;2023-03-01T04:38:45;-1.50;99.90
43151;DHT22;28755;51.478;5.702;2023-03-01T04:41:16;-1.50;99.90
43151;DHT22;28755;51.478;5.702;2023-03-01T04:43:42;-1.50;99.90
43151;DHT22;28755;51.478;5.702;2023-03-01T04:46:15;-1.40;99.90
43151;DHT22;28755;51.478;5.702;2023-03-01T04:48:42;-1.40;99.90
43151;DHT22;28755;51.478;5.702;2023-03-01T04:51:08;-1.30;99.90
43151;DHT22;28755;51.478;5.702;2023-03-01T04:53:35;-1.40;99.90
43151;DHT22;28755;51.478;5.702;2023-03-01T04:56:04;-1.50;99.90
43151;DHT22;28755;51.478;5.702;2023-03-01T04:58:30;-1.50;99.90
43151;DHT22;28755;51.478;5.702;2023-03-01T05:00:55;-1.50;99.90
43151;DHT22;28755;51.478;5.702;2023-03-01T05:03:21;-1.50;99.90
43151;DHT22;28755;51.478;5.702;2023-03-01T05:05:49;-1.50;99.90
43151;DHT22;28755;51.478;5.702;2023-03-01T05:08:15;-1.40;99.90
43151;DHT22;28755;51.478;5.702;2023-03-01T05:10:50;-1.50;99.90
43151;DHT22;28755;51.478;5.702;2023-03-01T05:13:17;-1.50;99.90
43151;DHT22;28755;51.478;5.702;2023-03-01T05:15:54;-1.50;99.90
43151;DHT22;28755;51.478;5.702;2023-03-01T05:18:20;-1.50;99.90
43151;DHT22;28755;51.478;5.702;2023-03-01T05:20:46;-1.60;99.90
43151;DHT22;28755;51.478;5.702;2023-03-01T05:23:12;-1.60;99.90
43151;DHT22;28755;51.478;5.702;2023-03-01T05:25:38;-1.60;99.90
43151;DHT22;28755;51.478;5.702;2023-03-01T05:28:06;-1.60;99.90
43151;DHT22;28755;51.478;5.702;2023-03-01T05:30:35;-1.70;99.90
43151;DHT22;28755;51.478;5.702;2023-03-01T05:33:01;-1.70;99.90
43151;DHT22;28755;51.478;5.702;2023-03-01T05:35:27;-1.70;99.90
43151;DHT22;28755;51.478;5.702;2023-03-01T05:37:54;-1.80;99.90
43151;DHT22;28755;51.478;5.702;2023-03-01T05:40:22;-1.80;99.90
43151;DHT22;28755;51.478;5.702;2023-03-01T05:42:52;-1.90;99.90
43151;DHT22;28755;51.478;5.702;2023-03-01T05:45:20;-1.90;99.90
43151;DHT22;28755;51.478;5.702;2023-03-01T05:47:46;-1.90;99.90
43151;DHT22;28755;51.478;5.702;2023-03-01T05:50:18;-1.80;99.90
43151;DHT22;28755;51.478;5.702;2023-03-01T05:52:45;-1.90;99.90
43151;DHT22;28755;51.478;5.702;2023-03-01T05:55:11;-1.90;99.90
43151;DHT22;28755;51.478;5.702;2023-03-01T05:57:36;-1.90;99.90
43151;DHT22;28755;51.478;5.702;2023-03-01T06:00:02;-2.00;99.90
43151;DHT22;28755;51.478;5.702;2023-03-01T06:02:28;-1.90;99.90
43151;DHT22;28755;51.478;5.702;2023-03-01T06:04:54;-2.00;99.90
43151;DHT22;28755;51.478;5.702;2023-03-01T06:07:20;-2.00;99.90
43151;DHT22;28755;51.478;5.702;2023-03-01T06:09:46;-2.00;99.90
43151;DHT22;28755;51.478;5.702;2023-03-01T06:12:12;-2.10;99.90
43151;DHT22;28755;51.478;5.702;2023-03-01T06:14:37;-2.10;99.90
43151;DHT22;28755;51.478;5.702;2023-03-01T06:17:03;-2.10;99.90
43151;DHT22;28755;51.478;5.702;2023-03-01T06:19:29;-2.10;99.90
43151;DHT22;28755;51.478;5.702;2023-03-01T06:21:54;-2.10;99.90
43151;DHT22;28755;51.478;5.702;2023-03-01T06:24:20;-2.10;99.90
43151;DHT22;28755;51.478;5.702;2023-03-01T06:26:45;-2.10;99.90
43151;DHT22;28755;51.478;5.702;2023-03-01T06:29:11;-2.10;99.90
43151;DHT22;28755;51.478;5.702;2023-03-01T06:31:36;-2.10;99.90
43151;DHT22;28755;51.478;5.702;2023-03-01T06:34:02;-2.10;99.90
43151;DHT22;28755;51.478;5.702;2023-03-01T06:36:28;-2.10;99.90
43151;DHT22;28755;51.478;5.702;2023-03-01T06:38:53;-2.10;99.90
43151;DHT22;28755;51.478;5.702;2023-03-01T06:41:19;-2.00;99.90
43151;DHT22;28755;51.478;5.702;2023-03-01T06:43:44;-2.00;99.90
43151;DHT22;28755;51.478;5.702;2023-03-01T06:46:10;-1.90;99.90
43151;DHT22;28755;51.478;5.702;2023-03-01T06:48:35;-1.80;99.90
43151;DHT22;28755;51.478;5.702;2023-03-01T06:51:01;-1.80;99.90
43151;DHT22;28755;51.478;5.702;2023-03-01T06:53:28;-1.70;99.90
43151;DHT22;28755;51.478;5.702;2023-03-01T06:55:57;-1.60;99.90
43151;DHT22;28755;51.478;5.702;2023-03-01T06:58:23;-1.40;99.90
43151;DHT22;28755;51.478;5.702;2023-03-01T07:00:49;-1.20;99.90
43151;DHT22;28755;51.478;5.702;2023-03-01T07:03:14;-0.90;99.90
43151;DHT22;28755;51.478;5.702;2023-03-01T07:05:40;-0.20;99.90
43151;DHT22;28755;51.478;5.702;2023-03-01T07:08:05;0.60;99.90
43151;DHT22;28755;51.478;5.702;2023-03-01T07:10:31;1.80;99.90
43151;DHT22;28755;51.478;5.702;2023-03-01T07:12:57;2.90;99.90
43151;DHT22;28755;51.478;5.702;2023-03-01T07:15:24;4.00;99.90
43151;DHT22;28755;51.478;5.702;2023-03-01T07:17:50;4.80;99.90
43151;DHT22;28755;51.478;5.702;2023-03-01T07:20:17;5.60;99.90
43151;DHT22;28755;51.478;5.702;2023-03-01T07:22:43;6.20;99.90
43151;DHT22;28755;51.478;5.702;2023-03-01T07:25:09;6.80;99.90
43151;DHT22;28755;51.478;5.702;2023-03-01T07:27:35;6.90;99.90
43151;DHT22;28755;51.478;5.702;2023-03-01T07:30:01;7.00;99.90
43151;DHT22;28755;51.478;5.702;2023-03-01T07:32:27;7.60;99.90
43151;DHT22;28755;51.478;5.702;2023-03-01T07:34:52;8.00;99.90
43151;DHT22;28755;51.478;5.702;2023-03-01T07:37:18;8.00;99.90
43151;DHT22;28755;51.478;5.702;2023-03-01T07:39:43;7.60;99.90
43151;DHT22;28755;51.478;5.702;2023-03-01T07:42:09;7.50;99.90
43151;DHT22;28755;51.478;5.702;2023-03-01T07:44:34;7.70;99.90
43151;DHT22;28755;51.478;5.702;2023-03-01T07:47:00;7.80;99.90
43151;DHT22;28755;51.478;5.702;2023-03-01T07:49:26;7.90;99.90
43151;DHT22;28755;51.478;5.702;2023-03-01T07:51:52;7.90;99.90
43151;DHT22;28755;51.478;5.702;2023-03-01T07:54:18;7.10;99.90
43151;DHT22;28755;51.478;5.702;2023-03-01T07:56:44;6.40;99.90
43151;DHT22;28755;51.478;5.702;2023-03-01T07:59:09;6.40;99.90
43151;DHT22;28755;51.478;5.702;2023-03-01T08:01:35;6.30;99.90
43151;DHT22;28755;51.478;5.702;2023-03-01T08:04:00;6.40;99.90
43151;DHT22;28755;51.478;5.702;2023-03-01T08:06:27;6.40;99.90
43151;DHT22;28755;51.478;5.702;2023-03-01T08:08:53;6.20;99.90
43151;DHT22;28755;51.478;5.702;2023-03-01T08:11:21;6.40;99.90
43151;DHT22;28755;51.478;5.702;2023-03-01T08:13:48;7.10;99.90
43151;DHT22;28755;51.478;5.702;2023-03-01T08:16:14;7.00;99.90
43151;DHT22;28755;51.478;5.702;2023-03-01T08:18:40;7.20;99.90
43151;DHT22;28755;51.478;5.702;2023-03-01T08:21:12;7.20;99.90
43151;DHT22;28755;51.478;5.702;2023-03-01T08:23:38;7.00;99.90
43151;DHT22;28755;51.478;5.702;2023-03-01T08:26:13;7.40;99.90
43151;DHT22;28755;51.478;5.702;2023-03-01T08:28:39;8.70;99.90
43151;DHT22;28755;51.478;5.702;2023-03-01T08:31:17;10.30;99.90
43151;DHT22;28755;51.478;5.702;2023-03-01T08:33:43;10.20;99.90
43151;DHT22;28755;51.478;5.702;2023-03-01T08:36:09;9.10;99.90
43151;DHT22;28755;51.478;5.702;2023-03-01T08:38:35;8.80;99.90
43151;DHT22;28755;51.478;5.702;2023-03-01T08:41:02;8.60;99.90
43151;DHT22;28755;51.478;5.702;2023-03-01T08:43:28;8.90;99.90
43151;DHT22;28755;51.478;5.702;2023-03-01T08:45:53;8.90;99.90
43151;DHT22;28755;51.478;5.702;2023-03-01T08:48:19;9.00;99.90
43151;DHT22;28755;51.478;5.702;2023-03-01T08:50:44;9.40;99.90
43151;DHT22;28755;51.478;5.702;2023-03-01T08:53:10;9.80;99.90
43151;DHT22;28755;51.478;5.702;2023-03-01T08:55:36;10.20;99.90
43151;DHT22;28755;51.478;5.702;2023-03-01T08:58:02;10.40;99.90
43151;DHT22;28755;51.478;5.702;2023-03-01T09:00:27;10.90;99.90
43151;DHT22;28755;51.478;5.702;2023-03-01T09:02:53;12.50;99.90
43151;DHT22;28755;51.478;5.702;2023-03-01T09:05:18;13.40;98.30
43151;DHT22;28755;51.478;5.702;2023-03-01T09:07:44;13.40;97.50
43151;DHT22;28755;51.478;5.702;2023-03-01T09:10:10;13.40;97.20
43151;DHT22;28755;51.478;5.702;2023-03-01T09:12:35;13.50;96.90
43151;DHT22;28755;51.478;5.702;2023-03-01T09:15:01;14.10;96.50
43151;DHT22;28755;51.478;5.702;2023-03-01T09:17:26;14.40;95.80
43151;DHT22;28755;51.478;5.702;2023-03-01T09:19:52;15.10;95.50
43151;DHT22;28755;51.478;5.702;2023-03-01T09:22:17;15.50;94.60
43151;DHT22;28755;51.478;5.702;2023-03-01T09:24:43;16.20;93.30
43151;DHT22;28755;51.478;5.702;2023-03-01T09:27:09;16.20;93.00
43151;DHT22;28755;51.478;5.702;2023-03-01T09:29:36;17.10;92.30
43151;DHT22;28755;51.478;5.702;2023-03-01T09:32:02;17.60;90.80
43151;DHT22;28755;51.478;5.702;2023-03-01T09:34:27;16.80;90.30
43151;DHT22;28755;51.478;5.702;2023-03-01T09:36:53;16.80;90.10
43151;DHT22;28755;51.478;5.702;2023-03-01T09:39:19;17.60;89.60
43151;DHT22;28755;51.478;5.702;2023-03-01T09:47:17;17.50;87.90
43151;DHT22;28755;51.478;5.702;2023-03-01T09:49:43;18.40;85.90
43151;DHT22;28755;51.478;5.702;2023-03-01T09:54:58;19.50;83.80
43151;DHT22;28755;51.478;5.702;2023-03-01T09:57:47;19.30;83.20
43151;DHT22;28755;51.478;5.702;2023-03-01T10:00:16;19.80;81.80
43151;DHT22;28755;51.478;5.702;2023-03-01T10:02:51;20.10;80.70
43151;DHT22;28755;51.478;5.702;2023-03-01T10:05:56;20.00;80.10
43151;DHT22;28755;51.478;5.702;2023-03-01T10:11:02;20.10;78.80
43151;DHT22;28755;51.478;5.702;2023-03-01T10:13:34;20.20;77.30
43151;DHT22;28755;51.478;5.702;2023-03-01T10:16:19;19.80;77.10
43151;DHT22;28755;51.478;5.702;2023-03-01T10:18:51;19.70;77.00
43151;DHT22;28755;51.478;5.702;2023-03-01T10:21:19;19.80;76.20
43151;DHT22;28755;51.478;5.702;2023-03-01T10:23:46;19.90;76.70
43151;DHT22;28755;51.478;5.702;2023-03-01T10:31:47;18.90;75.60
43151;DHT22;28755;51.478;5.702;2023-03-01T10:34:19;18.40;75.80
43151;DHT22;28755;51.478;5.702;2023-03-01T10:36:52;18.70;76.20
43151;DHT22;28755;51.478;5.702;2023-03-01T10:39:25;19.10;75.50
43151;DHT22;28755;51.478;5.702;2023-03-01T10:41:57;20.30;75.40
43151;DHT22;28755;51.478;5.702;2023-03-01T10:44:47;20.80;74.20
43151;DHT22;28755;51.478;5.702;2023-03-01T10:47:15;21.10;73.50
43151;DHT22;28755;51.478;5.702;2023-03-01T10:49:58;21.10;73.20
43151;DHT22;28755;51.478;5.702;2023-03-01T10:52:31;21.20;72.00
43151;DHT22;28755;51.478;5.702;2023-03-01T10:55:00;19.90;72.30
43151;DHT22;28755;51.478;5.702;2023-03-01T10:57:38;19.70;72.40
43151;DHT22;28755;51.478;5.702;2023-03-01T11:00:19;20.20;72.10
43151;DHT22;28755;51.478;5.702;2023-03-01T11:05:23;19.90;71.80
43151;DHT22;28755;51.478;5.702;2023-03-01T11:07:52;20.90;71.80
43151;DHT22;28755;51.478;5.702;2023-03-01T11:10:36;21.70;70.30
43151;DHT22;28755;51.478;5.702;2023-03-01T11:13:17;21.80;70.40
43151;DHT22;28755;51.478;5.702;2023-03-01T11:15:43;21.40;69.80
43151;DHT22;28755;51.478;5.702;2023-03-01T11:18:23;20.80;69.40
43151;DHT22;28755;51.478;5.702;2023-03-01T11:20:51;20.30;69.60
43151;DHT22;28755;51.478;5.702;2023-03-01T11:23:18;20.90;69.50
43151;DHT22;28755;51.478;5.702;2023-03-01T11:25:55;21.30;69.40
43151;DHT22;28755;51.478;5.702;2023-03-01T11:28:22;20.80;68.30
43151;DHT22;28755;51.478;5.702;2023-03-01T11:30:59;20.60;69.90
43151;DHT22;28755;51.478;5.702;2023-03-01T11:36:41;20.90;69.50
43151;DHT22;28755;51.478;5.702;2023-03-01T11:42:05;21.90;67.60
43151;DHT22;28755;51.478;5.702;2023-03-01T11:44:33;22.50;67.80
43151;DHT22;28755;51.478;5.702;2023-03-01T11:47:08;22.70;67.90
43151;DHT22;28755;51.478;5.702;2023-03-01T11:52:21;22.60;67.50
43151;DHT22;28755;51.478;5.702;2023-03-01T11:55:07;22.50;67.00
43151;DHT22;28755;51.478;5.702;2023-03-01T11:58:06;22.50;67.10
43151;DHT22;28755;51.478;5.702;2023-03-01T12:03:38;23.90;66.30
43151;DHT22;28755;51.478;5.702;2023-03-01T12:08:38;24.50;65.10
43151;DHT22;28755;51.478;5.702;2023-03-01T12:17:22;25.00;64.00
43151;DHT22;28755;51.478;5.702;2023-03-01T12:20:20;24.70;64.00
43151;DHT22;28755;51.478;5.702;2023-03-01T12:26:05;24.40;62.80
43151;DHT22;28755;51.478;5.702;2023-03-01T12:31:49;25.10;63.90
43151;DHT22;28755;51.478;5.702;2023-03-01T12:34:45;25.30;63.00
43151;DHT22;28755;51.478;5.702;2023-03-01T12:37:29;25.40;63.30
43151;DHT22;28755;51.478;5.702;2023-03-01T12:43:03;23.60;63.10
43151;DHT22;28755;51.478;5.702;2023-03-01T12:48:36;23.10;63.20
43151;DHT22;28755;51.478;5.702;2023-03-01T12:51:07;22.00;64.10
43151;DHT22;28755;51.478;5.702;2023-03-01T12:53:46;20.40;64.60
43151;DHT22;28755;51.478;5.702;2023-03-01T12:56:17;20.40;65.40
43151;DHT22;28755;51.478;5.702;2023-03-01T12:58:51;20.70;65.40
43151;DHT22;28755;51.478;5.702;2023-03-01T13:07:31;21.70;64.70
43151;DHT22;28755;51.478;5.702;2023-03-01T13:10:06;21.70;64.10
43151;DHT22;28755;51.478;5.702;2023-03-01T13:15:37;21.70;64.00
43151;DHT22;28755;51.478;5.702;2023-03-01T13:18:27;21.00;63.80
43151;DHT22;28755;51.478;5.702;2023-03-01T13:20:58;21.20;64.00
43151;DHT22;28755;51.478;5.702;2023-03-01T13:23:26;20.60;64.50
43151;DHT22;28755;51.478;5.702;2023-03-01T13:28:37;20.40;65.50
43151;DHT22;28755;51.478;5.702;2023-03-01T13:31:09;19.80;65.70
43151;DHT22;28755;51.478;5.702;2023-03-01T13:33:51;18.90;66.00
43151;DHT22;28755;51.478;5.702;2023-03-01T13:44:33;18.40;67.20
43151;DHT22;28755;51.478;5.702;2023-03-01T13:47:17;17.90;67.70
43151;DHT22;28755;51.478;5.702;2023-03-01T13:50:02;18.20;67.60
43151;DHT22;28755;51.478;5.702;2023-03-01T13:52:47;17.00;67.70
43151;DHT22;28755;51.478;5.702;2023-03-01T13:57:39;17.00;68.90
43151;DHT22;28755;51.478;5.702;2023-03-01T14:00:23;17.80;67.80
43151;DHT22;28755;51.478;5.702;2023-03-01T14:03:00;17.50;67.20
43151;DHT22;28755;51.478;5.702;2023-03-01T14:05:25;17.20;67.60
43151;DHT22;28755;51.478;5.702;2023-03-01T14:07:52;17.40;67.80
43151;DHT22;28755;51.478;5.702;2023-03-01T14:10:17;16.60;68.30
43151;DHT22;28755;51.478;5.702;2023-03-01T14:12:59;15.80;69.10
43151;DHT22;28755;51.478;5.702;2023-03-01T14:15:42;15.80;69.60
43151;DHT22;28755;51.478;5.702;2023-03-01T14:18:20;15.80;69.50
43151;DHT22;28755;51.478;5.702;2023-03-01T14:20:48;15.70;70.00
43151;DHT22;28755;51.478;5.702;2023-03-01T14:23:22;15.50;70.70
43151;DHT22;28755;51.478;5.702;2023-03-01T14:25:58;15.40;69.50
43151;DHT22;28755;51.478;5.702;2023-03-01T14:28:26;15.40;69.20
43151;DHT22;28755;51.478;5.702;2023-03-01T14:30:54;14.60;69.70
43151;DHT22;28755;51.478;5.702;2023-03-01T14:33:33;14.90;69.90
43151;DHT22;28755;51.478;5.702;2023-03-01T14:36:00;14.40;69.80
43151;DHT22;28755;51.478;5.702;2023-03-01T14:38:36;13.80;71.00
43151;DHT22;28755;51.478;5.702;2023-03-01T14:43:30;12.80;72.80
43151;DHT22;28755;51.478;5.702;2023-03-01T14:45:57;12.50;73.50
43151;DHT22;28755;51.478;5.702;2023-03-01T14:48:23;12.30;73.70
43151;DHT22;28755;51.478;5.702;2023-03-01T14:50:49;12.00;73.90
43151;DHT22;28755;51.478;5.702;2023-03-01T14:53:21;12.00;73.70
43151;DHT22;28755;51.478;5.702;2023-03-01T14:55:52;11.90;74.00
43151;DHT22;28755;51.478;5.702;2023-03-01T14:58:21;11.70;74.30
43151;DHT22;28755;51.478;5.702;2023-03-01T15:00:53;11.50;74.70
43151;DHT22;28755;51.478;5.702;2023-03-01T15:05:50;12.20;73.50
43151;DHT22;28755;51.478;5.702;2023-03-01T15:08:19;12.70;73.60
43151;DHT22;28755;51.478;5.702;2023-03-01T15:11:17;12.90;72.60
43151;DHT22;28755;51.478;5.702;2023-03-01T15:13:43;13.30;72.60
43151;DHT22;28755;51.478;5.702;2023-03-01T15:16:16;13.60;72.70
43151;DHT22;28755;51.478;5.702;2023-03-01T15:18:46;13.50;72.50
43151;DHT22;28755;51.478;5.702;2023-03-01T15:21:24;14.00;72.00
43151;DHT22;28755;51.478;5.702;2023-03-01T15:24:04;14.80;71.20
43151;DHT22;28755;51.478;5.702;2023-03-01T15:26:34;14.90;70.70
43151;DHT22;28755;51.478;5.702;2023-03-01T15:29:01;15.50;70.80
43151;DHT22;28755;51.478;5.702;2023-03-01T15:31:29;16.10;70.30
43151;DHT22;28755;51.478;5.702;2023-03-01T15:34:21;16.80;69.50
43151;DHT22;28755;51.478;5.702;2023-03-01T15:36:47;17.10;69.00
43151;DHT22;28755;51.478;5.702;2023-03-01T15:39:43;16.30;68.40
43151;DHT22;28755;51.478;5.702;2023-03-01T15:45:23;15.90;70.60
43151;DHT22;28755;51.478;5.702;2023-03-01T15:47:52;16.30;68.60
43151;DHT22;28755;51.478;5.702;2023-03-01T15:50:28;16.30;68.60
43151;DHT22;28755;51.478;5.702;2023-03-01T15:52:56;16.40;69.90
43151;DHT22;28755;51.478;5.702;2023-03-01T15:55:31;16.40;68.80
43151;DHT22;28755;51.478;5.702;2023-03-01T16:00:30;16.10;69.30
43151;DHT22;28755;51.478;5.702;2023-03-01T16:02:56;16.20;69.10
43151;DHT22;28755;51.478;5.702;2023-03-01T16:05:33;15.90;69.30
43151;DHT22;28755;51.478;5.702;2023-03-01T16:08:00;15.60;69.50
43151;DHT22;28755;51.478;5.702;2023-03-01T16:10:26;15.90;69.50
43151;DHT22;28755;51.478;5.702;2023-03-01T16:12:52;16.00;69.60
43151;DHT22;28755;51.478;5.702;2023-03-01T16:15:31;15.80;69.60
43151;DHT22;28755;51.478;5.702;2023-03-01T16:17:57;14.60;71.70
43151;DHT22;28755;51.478;5.702;2023-03-01T16:20:27;14.30;70.10
43151;DHT22;28755;51.478;5.702;2023-03-01T16:22:54;13.90;70.80
43151;DHT22;28755;51.478;5.702;2023-03-01T16:25:20;13.20;71.20
43151;DHT22;28755;51.478;5.702;2023-03-01T16:27:48;13.00;71.80
43151;DHT22;28755;51.478;5.702;2023-03-01T16:30:16;12.40;72.30
43151;DHT22;28755;51.478;5.702;2023-03-01T16:32:43;11.60;73.40
43151;DHT22;28755;51.478;5.702;2023-03-01T16:35:12;10.80;74.20
43151;DHT22;28755;51.478;5.702;2023-03-01T16:37:38;10.20;75.50
43151;DHT22;28755;51.478;5.702;2023-03-01T16:40:05;9.90;76.20
43151;DHT22;28755;51.478;5.702;2023-03-01T16:42:35;9.60;76.90
43151;DHT22;28755;51.478;5.702;2023-03-01T16:45:01;9.30;77.20
43151;DHT22;28755;51.478;5.702;2023-03-01T16:47:28;9.20;78.20
43151;DHT22;28755;51.478;5.702;2023-03-01T16:49:53;8.90;78.60
43151;DHT22;28755;51.478;5.702;2023-03-01T16:52:20;8.80;79.00
43151;DHT22;28755;51.478;5.702;2023-03-01T16:54:46;8.70;79.40
43151;DHT22;28755;51.478;5.702;2023-03-01T16:57:12;8.60;79.70
43151;DHT22;28755;51.478;5.702;2023-03-01T16:59:37;8.60;80.00
43151;DHT22;28755;51.478;5.702;2023-03-01T17:02:04;8.40;80.60
43151;DHT22;28755;51.478;5.702;2023-03-01T17:04:31;8.30;81.10
43151;DHT22;28755;51.478;5.702;2023-03-01T17:06:56;8.30;82.00
43151;DHT22;28755;51.478;5.702;2023-03-01T17:09:22;8.20;82.10
43151;DHT22;28755;51.478;5.702;2023-03-01T17:11:48;8.00;82.70
43151;DHT22;28755;51.478;5.702;2023-03-01T17:14:15;7.90;83.00
43151;DHT22;28755;51.478;5.702;2023-03-01T17:16:41;7.80;83.80
43151;DHT22;28755;51.478;5.702;2023-03-01T17:19:07;7.80;84.20